Time;durP1;ratioP1;P1;durP2;ratioP2;P2;SDS_P1;SDS_P2;PMS_P1;PMS_P2;Temp;Humidity;BMP_temperature;BMP_pressure;BME280_temperature;BME280_humidity;BME280_pressure;Samples;Min_cycle;Max_cycle;Signal;HPM_P1;HPM_P2
2023/08/29 00:02:08;;;;;;;3.47;2.03;;;;;;;17.88;74.61;101439.97;5032407;28;20496;-45
2023/08/29 00:04:33;;;;;;;4.00;2.00;;;;;;;17.84;74.68;101441.75;5032025;28;20124;-43
2023/08/29 00:06:59;;;;;;;3.47;1.92;;;;;;;17.80;74.91;101443.56;5032073;28;20138;-43
2023/08/29 00:09:24;;;;;;;4.80;1.95;;;;;;;17.80;74.50;101443.56;5032021;28;20092;-49
2023/08/29 00:11:49;;;;;;;5.03;1.98;;;;;;;17.77;74.65;101443.56;5032155;28;20045;-44
2023/08/29 00:14:15;;;;;;;3.65;2.00;;;;;;;17.76;74.71;101439.19;5032326;28;20033;-45
2023/08/29 00:16:41;;;;;;;4.45;2.13;;;;;;;17.75;74.85;101434.78;5031275;28;20038;-46
2023/08/29 00:19:06;;;;;;;5.10;2.30;;;;;;;17.71;75.23;101430.44;5031210;28;20036;-45
2023/08/29 00:21:32;;;;;;;2.90;2.20;;;;;;;17.70;75.08;101428.66;5031987;28;20041;-43
2023/08/29 00:23:57;;;;;;;3.53;2.25;;;;;;;17.70;75.05;101427.78;5032134;28;20068;-48
2023/08/29 00:26:22;;;;;;;4.60;1.88;;;;;;;17.73;74.32;101425.16;5031836;28;20407;-47
2023/08/29 00:28:49;;;;;;;4.18;2.08;;;;;;;17.69;74.62;101423.41;5031783;28;20102;-46
2023/08/29 00:31:14;;;;;;;3.30;2.17;;;;;;;17.62;75.16;101421.72;5032277;28;20041;-44
2023/08/29 00:33:40;;;;;;;2.72;1.90;;;;;;;17.60;75.34;101416.44;5031448;28;20044;-43
2023/08/29 00:36:05;;;;;;;2.35;2.00;;;;;;;17.61;75.21;101406.78;5031706;28;20041;-46
2023/08/29 00:38:31;;;;;;;3.15;2.20;;;;;;;17.59;75.16;101408.50;5031865;28;20025;-44
2023/08/29 00:40:56;;;;;;;3.13;1.95;;;;;;;17.66;75.00;101410.25;5031940;28;20099;-46
2023/08/29 00:43:21;;;;;;;3.10;1.90;;;;;;;17.66;74.70;101413.78;5031991;28;20064;-46
2023/08/29 00:45:48;;;;;;;3.13;2.08;;;;;;;17.65;74.85;101405.84;5030746;28;20033;-47
2023/08/29 00:48:14;;;;;;;3.63;2.17;;;;;;;17.67;74.80;101399.69;5032025;28;20052;-46
2023/08/29 00:50:40;;;;;;;3.15;2.00;;;;;;;17.65;75.18;101403.22;5031309;28;20034;-48
2023/08/29 00:53:06;;;;;;;3.47;2.13;;;;;;;17.65;75.16;101398.81;5031961;28;20575;-44
2023/08/29 00:55:36;;;;;;;2.88;1.80;;;;;;;17.64;74.98;101401.47;5031352;28;20034;-43
2023/08/29 00:58:02;;;;;;;3.42;1.98;;;;;;;17.66;75.13;101402.34;5032650;28;20033;-45
2023/08/29 01:00:30;;;;;;;3.53;1.95;;;;;;;17.64;75.04;101401.47;5032314;28;20040;-45
2023/08/29 01:02:55;;;;;;;3.05;1.92;;;;;;;17.66;74.80;101411.13;5032383;28;20103;-47
2023/08/29 01:05:21;;;;;;;3.67;2.17;;;;;;;17.55;75.05;101412.94;5030417;28;20037;-48
2023/08/29 01:07:49;;;;;;;2.60;1.90;;;;;;;17.50;75.63;101411.22;5032374;28;20605;-44
2023/08/29 01:10:15;;;;;;;4.03;2.03;;;;;;;17.43;76.08;101419.16;5032230;28;20037;-45
2023/08/29 01:12:47;;;;;;;4.65;2.20;;;;;;;17.39;76.14;101413.91;5031604;28;20083;-45
2023/08/29 01:15:21;;;;;;;4.20;2.10;;;;;;;17.42;76.18;101413.91;5031632;28;20045;-44
2023/08/29 01:18:00;;;;;;;4.03;2.08;;;;;;;17.45;75.70;101409.47;5031715;28;20033;-45
2023/08/29 01:20:27;;;;;;;5.15;1.90;;;;;;;17.42;75.64;101406.88;5031628;28;20064;-43
2023/08/29 01:23:31;;;;;;;3.63;1.95;;;;;;;17.40;75.62;101402.47;5031313;28;20538;-45
2023/08/29 01:26:11;;;;;;;3.35;1.80;;;;;;;17.42;75.64;101408.63;5030591;28;20057;-47
2023/08/29 01:28:37;;;;;;;2.78;1.70;;;;;;;17.34;76.10;101408.66;5030668;28;20092;-43
2023/08/29 01:31:04;;;;;;;3.47;1.77;;;;;;;17.31;76.09;101405.19;5031433;28;20288;-44
2023/08/29 01:33:30;;;;;;;4.13;1.92;;;;;;;17.38;76.12;101397.19;5030797;28;20084;-43
2023/08/29 01:35:55;;;;;;;2.78;1.88;;;;;;;17.41;75.50;101393.69;5030809;28;20120;-43
2023/08/29 01:38:21;;;;;;;3.70;2.00;;;;;;;17.34;75.76;101389.34;5031436;28;20045;-46
2023/08/29 01:40:46;;;;;;;2.40;1.60;;;;;;;17.34;75.47;101394.59;5030942;28;20032;-45
2023/08/29 01:43:12;;;;;;;2.92;1.90;;;;;;;17.27;75.83;101385.84;5030621;28;20057;-47
2023/08/29 01:45:38;;;;;;;3.63;1.92;;;;;;;17.23;76.04;101383.25;5030048;28;20095;-44
2023/08/29 01:48:04;;;;;;;3.75;1.80;;;;;;;17.23;75.92;101402.59;5031021;28;20041;-43
2023/08/29 01:50:31;;;;;;;3.00;1.92;;;;;;;17.21;75.80;101398.19;5030175;28;20088;-48
2023/08/29 01:52:59;;;;;;;2.60;1.90;;;;;;;17.20;75.98;101402.59;5030585;28;20030;-46
2023/08/29 01:55:25;;;;;;;4.05;2.03;;;;;;;17.18;76.12;101399.09;5029561;28;20044;-46
2023/08/29 01:57:51;;;;;;;4.18;2.03;;;;;;;17.06;77.13;101404.44;5030833;28;20058;-46
2023/08/29 02:00:18;;;;;;;3.28;1.90;;;;;;;17.04;77.46;101400.91;5030239;28;20084;-44
2023/08/29 02:02:43;;;;;;;3.63;1.75;;;;;;;17.16;76.69;101402.63;5029788;28;20049;-47
2023/08/29 02:05:09;;;;;;;2.88;1.80;;;;;;;17.18;76.52;101407.00;5030416;28;20510;-46
2023/08/29 02:07:34;;;;;;;4.10;1.70;;;;;;;17.21;76.16;101406.09;5029714;28;20041;-44
2023/08/29 02:09:59;;;;;;;3.92;1.80;;;;;;;17.20;76.22;101412.28;5030463;28;20040;-47
2023/08/29 02:12:25;;;;;;;2.50;1.63;;;;;;;17.22;76.04;101413.13;5029728;28;20065;-45
2023/08/29 02:14:50;;;;;;;3.80;1.90;;;;;;;17.17;76.21;101407.88;5030043;28;20037;-47
2023/08/29 02:17:15;;;;;;;2.70;1.80;;;;;;;17.21;76.21;101408.72;5028194;28;20060;-43
2023/08/29 02:19:41;;;;;;;2.75;1.95;;;;;;;17.19;76.29;101402.63;5029556;28;20075;-45
2023/08/29 02:22:06;;;;;;;2.97;1.80;;;;;;;17.17;76.52;101399.97;5030086;28;20080;-44
2023/08/29 02:24:31;;;;;;;4.13;1.77;;;;;;;17.21;75.78;101400.81;5029669;28;20088;-46
2023/08/29 02:26:57;;;;;;;3.83;1.67;;;;;;;17.21;76.18;101401.69;5030082;28;20147;-48
2023/08/29 02:29:22;;;;;;;2.10;1.40;;;;;;;17.20;75.94;101410.50;5030242;28;20033;-45
2023/08/29 02:31:47;;;;;;;2.42;1.58;;;;;;;17.17;76.11;101397.34;5029632;28;20029;-45
2023/08/29 02:34:13;;;;;;;2.83;1.80;;;;;;;17.19;76.23;101399.97;5030091;28;20056;-44
2023/08/29 02:36:38;;;;;;;2.25;1.50;;;;;;;17.20;76.48;101399.09;5029069;28;20099;-45
2023/08/29 02:39:03;;;;;;;3.20;1.63;;;;;;;17.22;76.24;101395.56;5030308;28;20038;-48
2023/08/29 02:41:29;;;;;;;2.88;1.67;;;;;;;17.22;76.41;101392.03;5028946;28;20516;-43
2023/08/29 02:43:55;;;;;;;2.58;1.60;;;;;;;17.25;76.50;101403.47;5030077;28;20045;-44
2023/08/29 02:46:21;;;;;;;2.60;1.60;;;;;;;17.28;76.62;101406.06;5030422;28;20033;-44
2023/08/29 02:48:46;;;;;;;2.58;1.90;;;;;;;17.16;77.79;101413.16;5030352;28;20554;-45
2023/08/29 02:51:11;;;;;;;5.07;2.00;;;;;;;17.12;78.88;101406.16;5030566;28;20043;-45
2023/08/29 02:53:37;;;;;;;3.55;1.70;;;;;;;17.21;78.69;101406.09;5030259;28;20033;-43
2023/08/29 02:56:02;;;;;;;2.75;1.75;;;;;;;17.43;78.12;101408.63;5029866;28;20106;-47
2023/08/29 02:58:27;;;;;;;3.10;1.77;;;;;;;17.50;77.73;101413.84;5029868;28;20061;-43
2023/08/29 03:00:57;;;;;;;3.15;1.83;;;;;;;17.47;78.13;101420.00;5029506;28;20033;-44
2023/08/29 03:03:23;;;;;;;3.00;1.60;;;;;;;17.56;78.27;101419.97;5029353;28;20034;-43
2023/08/29 03:05:59;;;;;;;2.28;1.65;;;;;;;17.66;77.85;101418.16;5028573;28;20144;-43
2023/08/29 03:08:25;;;;;;;2.40;1.55;;;;;;;17.72;77.88;101421.63;5029324;28;20033;-45
2023/08/29 03:10:51;;;;;;;3.03;1.65;;;;;;;17.75;77.77;101413.69;5029497;28;20037;-43
2023/08/29 03:13:17;;;;;;;3.85;1.70;;;;;;;17.82;77.70;101418.03;5029208;28;20041;-43
2023/08/29 03:15:46;;;;;;;2.70;1.70;;;;;;;17.87;77.65;101417.97;5028250;28;20060;-44
2023/08/29 03:18:12;;;;;;;3.67;1.90;;;;;;;17.74;78.40;101414.59;5029448;28;20132;-43
2023/08/29 03:20:43;;;;;;;4.20;2.00;;;;;;;17.75;78.52;101412.81;5028893;28;20125;-43
2023/08/29 03:23:09;;;;;;;4.10;1.80;;;;;;;18.04;77.81;101409.94;5029153;28;20033;-44
2023/08/29 03:25:35;;;;;;;3.38;1.80;;;;;;;18.09;77.62;101410.78;5028282;28;20042;-46
2023/08/29 03:28:01;;;;;;;4.78;1.77;;;;;;;18.13;77.38;101418.66;5029418;28;20034;-45
2023/08/29 03:30:27;;;;;;;3.10;1.50;;;;;;;18.15;77.46;101413.38;5028805;28;20041;-47
2023/08/29 03:32:52;;;;;;;3.92;1.67;;;;;;;18.16;77.53;101407.22;5028960;28;20044;-47
2023/08/29 03:35:18;;;;;;;3.08;1.70;;;;;;;18.23;77.15;101407.16;5028486;28;20041;-47
2023/08/29 03:37:44;;;;;;;3.42;1.90;;;;;;;18.23;77.01;101401.88;5029024;28;20095;-43
2023/08/29 03:40:10;;;;;;;4.40;1.80;;;;;;;18.19;76.92;101400.13;5029352;28;20498;-43
2023/08/29 03:42:36;;;;;;;3.78;1.80;;;;;;;18.20;76.83;101399.25;5028941;28;20121;-46
2023/08/29 03:45:02;;;;;;;4.15;1.77;;;;;;;18.12;76.88;101411.63;5029357;28;20469;-46
2023/08/29 03:47:28;;;;;;;2.97;1.70;;;;;;;18.14;77.01;101414.25;5028351;28;20396;-47
2023/08/29 03:49:53;;;;;;;2.50;1.60;;;;;;;18.15;76.83;101414.25;5029446;28;20034;-47
2023/08/29 03:52:22;;;;;;;3.17;1.80;;;;;;;18.10;76.92;101410.78;5030802;28;20492;-43
2023/08/29 03:54:48;;;;;;;2.40;1.60;;;;;;;18.12;76.62;101416.03;5032624;28;20116;-43
2023/08/29 03:57:13;;;;;;;3.90;1.90;;;;;;;17.99;76.96;101409.97;5032600;28;20125;-44
2023/08/29 03:59:39;;;;;;;2.30;1.70;;;;;;;18.04;76.41;101412.59;5032377;28;20033;-44
2023/08/29 04:02:06;;;;;;;3.55;1.80;;;;;;;18.06;75.92;101414.31;5032422;28;20542;-45
2023/08/29 04:04:32;;;;;;;2.35;1.70;;;;;;;17.94;76.43;101419.69;5032235;28;20088;-44
2023/08/29 04:06:59;;;;;;;3.78;1.90;;;;;;;17.89;76.40;101412.69;5032216;28;20128;-45
2023/08/29 04:09:24;;;;;;;3.15;1.70;;;;;;;17.84;76.30;101411.00;5032393;28;20037;-45
2023/08/29 04:11:49;;;;;;;2.72;1.60;;;;;;;17.81;76.01;101411.00;5032142;28;20045;-47
2023/08/29 04:14:15;;;;;;;2.45;1.70;;;;;;;17.81;75.81;101404.84;5032113;28;20086;-43
2023/08/29 04:16:40;;;;;;;3.20;1.70;;;;;;;17.78;75.69;101394.34;5031324;28;20037;-43
2023/08/29 04:19:06;;;;;;;1.88;1.50;;;;;;;17.71;75.71;101382.97;5032338;28;20124;-46
2023/08/29 04:21:31;;;;;;;5.47;1.80;;;;;;;17.43;76.88;101381.38;5031809;28;20124;-44
2023/08/29 04:23:57;;;;;;;3.63;1.77;;;;;;;17.44;76.70;101380.50;5033502;28;20038;-44
2023/08/29 04:26:22;;;;;;;2.17;1.60;;;;;;;17.44;76.29;101383.97;5033134;28;20622;-42
2023/08/29 04:28:48;;;;;;;3.25;1.83;;;;;;;17.47;75.98;101385.75;5032420;28;20038;-46
2023/08/29 04:31:14;;;;;;;4.35;1.65;;;;;;;17.41;76.03;101391.94;5033105;28;20041;-43
2023/08/29 04:33:42;;;;;;;2.78;1.60;;;;;;;17.38;76.20;101377.91;5032816;28;20037;-43
2023/08/29 04:36:08;;;;;;;2.38;1.65;;;;;;;17.37;75.95;101373.53;5033694;28;20103;-43
2023/08/29 04:38:34;;;;;;;3.67;1.80;;;;;;;17.33;76.05;101375.28;5033741;28;20594;-44
2023/08/29 04:41:00;;;;;;;3.70;1.90;;;;;;;17.31;76.14;101369.16;5033969;28;20128;-46
2023/08/29 04:43:27;;;;;;;3.20;1.77;;;;;;;17.31;76.10;101373.56;5031598;28;20034;-45
2023/08/29 04:45:52;;;;;;;2.70;2.00;;;;;;;17.29;76.30;101376.19;5031168;28;20052;-43
2023/08/29 04:48:17;;;;;;;4.43;2.03;;;;;;;17.28;76.31;101376.19;5031638;28;20038;-46
2023/08/29 04:50:45;;;;;;;4.53;2.20;;;;;;;17.28;76.51;101371.81;5031463;28;20091;-44
2023/08/29 04:53:11;;;;;;;3.55;2.03;;;;;;;17.27;76.42;101364.78;5031335;28;20078;-49
2023/08/29 04:55:36;;;;;;;3.25;2.00;;;;;;;17.30;76.31;101372.69;5030565;28;20041;-49
2023/08/29 04:58:01;;;;;;;2.90;2.00;;;;;;;17.28;76.58;101363.03;5031903;28;20120;-45
2023/08/29 05:00:28;;;;;;;3.35;2.05;;;;;;;17.28;76.57;101368.28;5029932;28;20307;-45
2023/08/29 05:02:54;;;;;;;4.68;2.30;;;;;;;17.14;77.59;101378.06;5031275;28;20092;-41
2023/08/29 05:05:19;;;;;;;3.35;2.00;;;;;;;17.03;79.22;101375.44;5029007;28;20041;-43
2023/08/29 05:07:44;;;;;;;3.60;2.05;;;;;;;17.28;78.06;101368.28;5030859;28;20033;-45
2023/08/29 05:10:10;;;;;;;4.55;2.30;;;;;;;17.34;77.66;101369.13;5031424;28;20492;-43
2023/08/29 05:12:35;;;;;;;4.13;2.08;;;;;;;17.40;77.56;101376.13;5030566;28;20041;-45
2023/08/29 05:15:00;;;;;;;4.47;2.20;;;;;;;17.31;78.18;101370.91;5031192;28;20461;-45
2023/08/29 05:17:26;;;;;;;3.47;1.90;;;;;;;17.40;78.02;101365.56;5030443;28;20065;-48
2023/08/29 05:19:52;;;;;;;8.38;2.10;;;;;;;17.42;77.92;101359.41;5031026;28;20072;-43
2023/08/29 05:22:17;;;;;;;3.83;2.05;;;;;;;17.47;77.99;101361.13;5031018;28;20033;-48
2023/08/29 05:24:42;;;;;;;4.53;3.10;;;;;;;17.39;78.15;101359.41;5030620;28;20038;-47
2023/08/29 05:27:08;;;;;;;6.97;4.93;;;;;;;17.35;78.53;101362.09;5030317;28;20121;-44
2023/08/29 05:29:33;;;;;;;8.73;4.43;;;;;;;17.55;78.23;101360.22;5030425;28;20064;-44
2023/08/29 05:31:58;;;;;;;4.68;3.20;;;;;;;17.70;78.21;101352.19;5031183;28;20130;-44
2023/08/29 05:34:24;;;;;;;4.25;2.90;;;;;;;17.64;77.70;101359.28;5030718;28;20400;-45
2023/08/29 05:36:50;;;;;;;4.15;2.55;;;;;;;17.66;78.22;101350.47;5029857;28;20041;-46
2023/08/29 05:39:16;;;;;;;6.10;3.03;;;;;;;17.74;78.03;101351.31;5030512;28;20037;-50
2023/08/29 05:41:41;;;;;;;4.22;2.50;;;;;;;17.80;78.42;101358.28;5030197;28;20049;-43
2023/08/29 05:44:06;;;;;;;4.82;2.40;;;;;;;18.03;77.77;101352.78;5030355;28;20083;-47
2023/08/29 05:46:32;;;;;;;4.88;2.35;;;;;;;18.00;77.69;101356.31;5029817;28;20488;-43
2023/08/29 05:48:59;;;;;;;5.10;2.42;;;;;;;18.01;77.91;101352.81;5030771;28;20496;-43
2023/08/29 05:51:25;;;;;;;4.95;2.70;;;;;;;17.97;77.81;101352.84;5031225;28;20033;-49
2023/08/29 05:53:50;;;;;;;4.80;2.60;;;;;;;18.00;77.84;101348.41;5032073;28;20037;-48
2023/08/29 05:56:16;;;;;;;4.90;2.60;;;;;;;18.09;77.25;101353.59;5030837;28;20041;-43
2023/08/29 05:58:41;;;;;;;5.13;3.08;;;;;;;17.97;77.29;101358.13;5030206;28;20029;-44
2023/08/29 06:01:07;;;;;;;5.80;2.67;;;;;;;17.96;77.82;101356.38;5030190;28;20065;-43
2023/08/29 06:03:32;;;;;;;4.93;2.80;;;;;;;17.99;77.89;101351.09;5029775;28;20037;-43
2023/08/29 06:05:59;;;;;;;4.35;2.90;;;;;;;18.09;77.69;101353.59;5029794;28;20099;-47
2023/08/29 06:08:25;;;;;;;5.63;2.60;;;;;;;18.10;77.01;101344.81;5029117;28;20038;-49
2023/08/29 06:10:50;;;;;;;4.88;2.90;;;;;;;18.23;77.45;101350.84;5030361;28;20075;-47
2023/08/29 06:13:16;;;;;;;4.93;2.67;;;;;;;18.38;77.38;101352.41;5030255;28;20616;-47
2023/08/29 06:15:42;;;;;;;3.70;2.50;;;;;;;18.57;77.01;101359.28;5029452;28;20037;-45
2023/08/29 06:18:08;;;;;;;5.03;2.47;;;;;;;18.63;76.61;101354.81;5030254;28;20037;-44
2023/08/29 06:20:34;;;;;;;4.40;2.65;;;;;;;18.61;76.44;101346.00;5029744;28;20406;-43
2023/08/29 06:22:59;;;;;;;4.65;2.58;;;;;;;18.75;76.63;101343.22;5030361;28;20492;-43
2023/08/29 06:25:24;;;;;;;5.45;3.05;;;;;;;18.99;76.48;101348.16;5029053;28;20037;-47
2023/08/29 06:27:50;;;;;;;6.35;2.92;;;;;;;19.36;76.10;101350.28;5030438;28;20038;-46
2023/08/29 06:30:16;;;;;;;4.80;2.75;;;;;;;19.55;76.05;101338.56;5030302;28;20120;-47
2023/08/29 06:32:42;;;;;;;5.55;2.78;;;;;;;19.79;74.29;101334.63;5029497;28;20045;-44
2023/08/29 06:35:09;;;;;;;4.13;2.78;;;;;;;20.35;73.13;101332.75;5029506;28;20045;-42
2023/08/29 06:37:36;;;;;;;6.53;2.80;;;;;;;21.32;70.40;101341.28;5029804;28;20045;-46
2023/08/29 06:40:03;;;;;;;4.25;2.80;;;;;;;22.07;65.59;101338.53;5029967;28;20084;-48
2023/08/29 06:42:28;;;;;;;9.23;3.28;;;;;;;22.68;60.43;101334.16;5029521;28;20141;-45
2023/08/29 06:44:57;;;;;;;6.22;3.30;;;;;;;23.21;58.39;101337.88;5029581;28;20045;-45
2023/08/29 06:47:22;;;;;;;7.75;3.30;;;;;;;23.58;57.69;101334.94;5029232;28;20037;-44
2023/08/29 06:49:47;;;;;;;6.38;3.38;;;;;;;23.86;56.41;101329.53;5028975;28;20084;-46
2023/08/29 06:52:13;;;;;;;7.43;3.50;;;;;;;24.76;54.66;101335.19;5029414;28;20048;-44
2023/08/29 06:54:38;;;;;;;6.80;3.35;;;;;;;25.36;51.67;101325.75;5029427;28;20065;-43
2023/08/29 06:57:04;;;;;;;7.32;3.28;;;;;;;25.75;49.17;101321.44;5029284;28;20041;-46
2023/08/29 06:59:29;;;;;;;4.95;3.17;;;;;;;25.97;49.82;101321.41;5029582;28;20139;-45
2023/08/29 07:01:54;;;;;;;6.00;3.28;;;;;;;26.66;47.74;101328.09;5029882;28;20464;-43
2023/08/29 07:04:20;;;;;;;4.95;2.90;;;;;;;26.44;47.26;101330.03;5029544;28;20049;-46
2023/08/29 07:06:45;;;;;;;4.72;2.85;;;;;;;25.94;48.65;101332.22;5028394;28;20043;-47
2023/08/29 07:09:10;;;;;;;6.53;2.90;;;;;;;26.32;48.42;101333.25;5029372;28;20117;-45
2023/08/29 07:11:36;;;;;;;5.75;3.22;;;;;;;26.34;47.57;101328.72;5028966;28;20108;-47
2023/08/29 07:14:01;;;;;;;5.13;3.15;;;;;;;26.43;48.35;101328.28;5029016;28;20061;-47
2023/08/29 07:16:26;;;;;;;7.72;3.42;;;;;;;25.16;51.26;101328.34;5028802;28;20518;-48
2023/08/29 07:18:52;;;;;;;6.45;3.42;;;;;;;25.11;52.06;101331.19;5027995;28;20034;-47
2023/08/29 07:21:17;;;;;;;7.32;3.70;;;;;;;24.74;53.36;101330.84;5029350;28;20041;-46
2023/08/29 07:23:43;;;;;;;8.38;3.72;;;;;;;25.53;52.37;101335.72;5028839;28;20128;-47
2023/08/29 07:26:08;;;;;;;7.45;3.70;;;;;;;25.99;48.97;101324.84;5028501;28;20499;-45
2023/08/29 07:28:34;;;;;;;7.05;3.70;;;;;;;26.43;47.92;101325.59;5031980;28;20037;-44
2023/08/29 07:30:59;;;;;;;7.45;3.80;;;;;;;26.16;48.43;101325.00;5033083;28;20434;-48
2023/08/29 07:33:25;;;;;;;9.52;3.70;;;;;;;25.76;50.65;101327.66;5031357;28;20060;-50
2023/08/29 07:35:50;;;;;;;7.78;3.60;;;;;;;25.21;52.93;101332.56;5032309;28;20059;-44
2023/08/29 07:38:18;;;;;;;6.65;3.90;;;;;;;24.61;53.71;101335.75;5032962;28;20041;-46
2023/08/29 07:40:45;;;;;;;6.75;3.90;;;;;;;24.14;55.87;101319.69;5032262;28;20053;-46
2023/08/29 07:43:11;;;;;;;6.90;3.90;;;;;;;23.91;56.90;101326.75;5032615;28;20068;-46
2023/08/29 07:45:36;;;;;;;6.82;4.10;;;;;;;23.98;57.67;101331.78;5031454;28;20037;-46
2023/08/29 07:48:02;;;;;;;6.78;4.22;;;;;;;24.16;57.30;101322.28;5032751;28;20115;-49
2023/08/29 07:50:28;;;;;;;8.98;4.30;;;;;;;23.95;57.13;101331.03;5032393;28;20454;-46
2023/08/29 07:52:53;;;;;;;7.47;4.78;;;;;;;24.34;56.25;101329.63;5032521;28;20041;-44
2023/08/29 07:55:20;;;;;;;9.95;4.78;;;;;;;23.78;57.69;101329.84;5032002;28;20438;-40
2023/08/29 07:57:45;;;;;;;7.75;4.60;;;;;;;23.65;58.69;101328.50;5032319;28;20041;-43
2023/08/29 08:00:12;;;;;;;6.30;4.32;;;;;;;23.76;58.95;101333.47;5032791;28;20033;-46
2023/08/29 08:02:41;;;;;;;8.65;4.68;;;;;;;23.61;56.86;101325.97;5032210;28;20056;-43
2023/08/29 08:05:11;;;;;;;7.05;4.70;;;;;;;23.32;58.11;101325.09;5033302;28;20087;-45
2023/08/29 08:07:37;;;;;;;7.40;4.30;;;;;;;23.61;57.77;101317.97;5032274;28;20037;-46
2023/08/29 08:10:04;;;;;;;9.48;4.85;;;;;;;23.19;59.64;101326.41;5033138;28;20044;-50
2023/08/29 08:12:31;;;;;;;7.50;4.57;;;;;;;23.04;60.01;101322.47;5032415;28;20148;-47
2023/08/29 08:14:56;;;;;;;7.20;4.20;;;;;;;23.55;58.64;101326.16;5033342;28;20037;-44
2023/08/29 08:17:21;;;;;;;9.13;4.22;;;;;;;22.59;61.72;101334.41;5033235;28;20044;-44
2023/08/29 08:19:47;;;;;;;7.75;4.43;;;;;;;22.33;63.25;101327.19;5032748;28;20049;-44
2023/08/29 08:22:12;;;;;;;7.10;4.55;;;;;;;22.61;60.67;101325.50;5033190;28;20041;-45
2023/08/29 08:24:39;;;;;;;5.70;4.15;;;;;;;23.01;60.05;101322.53;5032283;28;20091;-45
2023/08/29 08:27:05;;;;;;;7.93;4.15;;;;;;;23.01;60.19;101324.31;5031637;28;20121;-44
2023/08/29 08:29:31;;;;;;;8.57;4.70;;;;;;;23.04;59.55;101321.59;5032122;28;20033;-44
2023/08/29 08:31:57;;;;;;;8.60;4.85;;;;;;;23.04;60.46;101324.25;5032158;28;20043;-43
2023/08/29 08:34:23;;;;;;;6.60;4.15;;;;;;;23.31;59.64;101319.81;5031862;28;20492;-40
2023/08/29 08:36:48;;;;;;;8.77;5.82;;;;;;;23.30;59.93;101320.75;5030770;28;20029;-46
2023/08/29 08:39:13;;;;;;;9.55;5.85;;;;;;;22.92;59.94;101316.66;5030425;28;20054;-46
2023/08/29 08:41:38;;;;;;;7.30;6.10;;;;;;;23.47;58.14;101309.59;5031240;28;20105;-45
2023/08/29 08:44:08;;;;;;;9.38;6.25;;;;;;;23.56;58.08;101310.16;5031382;28;20113;-43
2023/08/29 08:46:34;;;;;;;7.80;5.78;;;;;;;23.68;57.13;101301.75;5030645;28;20037;-44
2023/08/29 08:49:00;;;;;;;6.53;5.00;;;;;;;23.88;56.08;101303.75;5031551;28;20154;-44
2023/08/29 08:51:28;;;;;;;8.43;4.10;;;;;;;24.07;55.02;101298.66;5031107;28;20033;-44
2023/08/29 08:53:54;;;;;;;4.20;3.30;;;;;;;24.27;54.16;101291.69;5030398;28;20030;-46
2023/08/29 08:56:19;;;;;;;5.07;3.63;;;;;;;24.43;54.18;101293.81;5031237;28;20029;-45
2023/08/29 08:58:45;;;;;;;4.85;3.03;;;;;;;24.51;52.42;101297.94;5032384;28;20419;-43
2023/08/29 09:01:11;;;;;;;5.38;3.38;;;;;;;24.58;53.64;101294.09;5031925;28;20065;-43
2023/08/29 09:03:38;;;;;;;6.30;3.92;;;;;;;24.84;53.40;101289.56;5030528;28;20088;-43
2023/08/29 09:06:04;;;;;;;5.35;3.58;;;;;;;25.26;52.28;101285.19;5031602;28;20513;-46
2023/08/29 09:08:31;;;;;;;3.85;2.40;;;;;;;24.70;51.71;101291.91;5032118;28;20042;-42
2023/08/29 09:11:00;;;;;;;3.60;2.10;;;;;;;24.86;49.91;101288.56;5032710;28;20492;-44
2023/08/29 09:13:26;;;;;;;2.92;2.03;;;;;;;24.51;48.15;101289.06;5032443;28;20079;-47
2023/08/29 09:15:51;;;;;;;3.15;1.90;;;;;;;24.10;51.78;101287.88;5033108;28;20582;-44
2023/08/29 09:18:24;;;;;;;4.13;2.50;;;;;;;24.05;51.69;101272.06;5032460;28;20038;-43
2023/08/29 09:20:52;;;;;;;2.77;2.23;;;;;;;24.65;50.90;101271.59;5030956;28;20124;-42
2023/08/29 09:23:25;;;;;;;4.10;2.58;;;;;;;23.96;53.41;101271.53;5031021;28;20041;-44
2023/08/29 09:25:58;;;;;;;3.85;2.40;;;;;;;24.02;52.78;101277.50;5029891;28;20069;-45
2023/08/29 09:28:28;;;;;;;4.63;2.17;;;;;;;23.71;55.34;101280.38;5031004;28;20116;-43
2023/08/29 09:30:54;;;;;;;3.10;2.20;;;;;;;24.02;54.46;101273.97;5030268;28;20544;-45
2023/08/29 09:33:23;;;;;;;2.88;2.28;;;;;;;23.76;53.12;101281.06;5030615;28;20040;-44
2023/08/29 09:35:49;;;;;;;3.13;1.92;;;;;;;23.77;53.47;101276.63;5029472;28;20395;-48
2023/08/29 09:38:18;;;;;;;4.80;2.08;;;;;;;23.82;52.84;101269.34;5030080;28;20034;-44
2023/08/29 09:40:50;;;;;;;3.28;2.25;;;;;;;24.09;50.65;101272.84;5029007;28;20037;-47
2023/08/29 09:43:16;;;;;;;2.50;1.90;;;;;;;24.42;51.52;101282.28;5030479;28;20033;-45
2023/08/29 09:45:47;;;;;;;2.85;2.35;;;;;;;24.74;50.27;101274.84;5029489;28;20060;-44
2023/08/29 09:48:13;;;;;;;2.30;2.00;;;;;;;25.19;49.03;101259.69;5030449;28;20045;-43
2023/08/29 09:50:40;;;;;;;3.50;2.30;;;;;;;24.81;49.62;101271.00;5028809;28;20139;-43
2023/08/29 09:53:08;;;;;;;4.25;2.70;;;;;;;24.82;48.24;101262.09;5030230;28;20044;-45
2023/08/29 09:55:44;;;;;;;3.47;2.55;;;;;;;25.43;48.56;101263.16;5029541;28;20036;-44
2023/08/29 09:58:10;;;;;;;5.35;2.70;;;;;;;25.17;48.95;101255.38;5029210;28;20034;-43
2023/08/29 10:00:36;;;;;;;3.22;2.50;;;;;;;25.18;49.43;101254.44;5029983;28;20041;-46
2023/08/29 10:03:06;;;;;;;5.70;3.50;;;;;;;25.04;48.12;101258.53;5030321;28;20042;-44
2023/08/29 10:05:36;;;;;;;2.65;2.08;;;;;;;24.68;49.45;101265.28;5029020;28;20156;-45
2023/08/29 10:08:13;;;;;;;4.00;2.03;;;;;;;24.50;51.02;101260.66;5030219;28;20044;-42
2023/08/29 10:10:41;;;;;;;2.92;1.90;;;;;;;24.59;50.22;101261.16;5029409;28;20037;-50
2023/08/29 10:13:08;;;;;;;2.55;1.67;;;;;;;24.77;49.93;101261.38;5029971;28;20082;-44
2023/08/29 10:15:34;;;;;;;2.22;1.38;;;;;;;24.53;48.82;101258.75;5028902;28;20408;-45
2023/08/29 10:18:00;;;;;;;2.72;1.38;;;;;;;24.55;47.17;101256.91;5028732;28;20120;-43
2023/08/29 10:20:26;;;;;;;2.53;1.45;;;;;;;24.85;48.24;101264.63;5029334;28;20120;-48
2023/08/29 10:22:53;;;;;;;2.33;1.30;;;;;;;25.21;46.50;101254.28;5029493;28;20038;-45
2023/08/29 10:25:21;;;;;;;1.90;1.30;;;;;;;24.31;47.80;101251.63;5029043;28;20499;-50
2023/08/29 10:27:48;;;;;;;2.05;1.38;;;;;;;24.61;46.21;101253.13;5029188;28;20029;-43
2023/08/29 10:30:14;;;;;;;1.90;1.20;;;;;;;25.20;45.16;101250.75;5029711;28;20044;-47
2023/08/29 10:32:42;;;;;;;1.98;1.00;;;;;;;25.94;43.57;101241.38;5029297;28;20503;-47
2023/08/29 10:35:17;;;;;;;1.35;0.98;;;;;;;25.64;42.88;101238.25;5029276;28;20033;-46
2023/08/29 10:37:42;;;;;;;1.55;0.90;;;;;;;25.39;44.27;101234.84;5029381;28;20025;-43
2023/08/29 10:40:11;;;;;;;1.63;1.00;;;;;;;24.87;46.20;101241.44;5029723;28;20120;-47
2023/08/29 10:43:00;;;;;;;1.98;1.40;;;;;;;24.64;46.74;101240.53;5028984;28;20036;-45
2023/08/29 10:45:49;;;;;;;2.15;1.40;;;;;;;25.49;44.60;101238.00;5028433;28;20046;-47
2023/08/29 10:48:22;;;;;;;1.63;1.30;;;;;;;25.82;43.81;101236.56;5029663;28;20102;-49
2023/08/29 10:51:08;;;;;;;1.60;1.27;;;;;;;25.40;46.00;101241.94;5029648;28;20079;-43
2023/08/29 10:53:46;;;;;;;1.70;1.10;;;;;;;25.12;45.15;101241.34;5030382;28;20451;-47
2023/08/29 10:56:12;;;;;;;2.17;1.10;;;;;;;25.33;44.50;101237.78;5029199;28;20463;-42
2023/08/29 10:58:40;;;;;;;1.75;1.10;;;;;;;25.07;44.68;101238.84;5030174;28;20096;-44
2023/08/29 11:01:07;;;;;;;2.03;0.90;;;;;;;25.75;42.10;101238.66;5028941;28;20034;-41
2023/08/29 11:03:49;;;;;;;1.70;1.10;;;;;;;25.48;45.35;101239.81;5029509;28;20044;-49
2023/08/29 11:06:19;;;;;;;1.25;1.00;;;;;;;25.73;44.25;101234.31;5030221;28;20148;-50
2023/08/29 11:08:44;;;;;;;1.50;1.10;;;;;;;25.90;43.14;101230.91;5029720;28;20041;-47
2023/08/29 11:11:20;;;;;;;1.33;1.00;;;;;;;25.70;44.99;101229.09;5030269;28;20038;-45
2023/08/29 11:14:03;;;;;;;2.90;1.20;;;;;;;25.74;44.79;101228.88;5028756;28;20032;-48
2023/08/29 11:16:30;;;;;;;2.92;1.30;;;;;;;25.58;45.11;101225.16;5028226;28;20125;-45
2023/08/29 11:19:04;;;;;;;2.50;1.50;;;;;;;25.70;45.06;101219.28;5029114;28;20057;-46
2023/08/29 11:21:31;;;;;;;2.88;1.73;;;;;;;25.54;45.83;101231.53;5028760;28;20041;-45
2023/08/29 11:23:57;;;;;;;4.82;1.50;;;;;;;25.12;47.58;101226.22;5028916;28;20454;-47